Time;durP1;ratioP1;P1;durP2;ratioP2;P2;SDS_P1;SDS_P2;PMS_P1;PMS_P2;Temp;Humidity;BMP_temperature;BMP_pressure;BME280_temperature;BME280_humidity;BME280_pressure;Samples;Min_cycle;Max_cycle;Signal;HPM_P1;HPM_P2
2023/10/06 00:02:48;;;;;;;3.70;2.20;;;;;;;22.95;51.48;102003.71;110695;1250;22380;-63
2023/10/06 00:05:11;;;;;;;5.90;3.10;;;;;;;22.98;51.27;102004.27;110581;1260;22377;-65
2023/10/06 00:07:37;;;;;;;3.20;2.30;;;;;;;23.00;51.46;102004.69;110650;1250;22483;-65
2023/10/06 00:10:14;;;;;;;4.10;2.40;;;;;;;23.03;51.50;102000.77;110207;1262;22129;-61
2023/10/06 00:12:47;;;;;;;3.80;2.60;;;;;;;23.06;51.47;102000.98;110543;1253;22268;-60
2023/10/06 00:15:26;;;;;;;3.50;2.70;;;;;;;23.07;51.53;102000.73;110377;1260;22395;-64
2023/10/06 00:17:56;;;;;;;3.90;3.00;;;;;;;23.10;51.70;101997.96;110647;1263;22131;-61
2023/10/06 00:20:26;;;;;;;4.00;2.50;;;;;;;23.11;51.59;101996.44;110746;1251;22173;-63
2023/10/06 00:23:02;;;;;;;4.10;2.90;;;;;;;23.14;51.75;101999.30;110270;1266;22763;-61
2023/10/06 00:25:29;;;;;;;3.70;2.50;;;;;;;23.16;52.02;101994.75;110706;1251;22975;-65
2023/10/06 00:27:56;;;;;;;10.40;2.90;;;;;;;23.19;52.02;101997.43;110635;1254;22142;-62
2023/10/06 00:30:25;;;;;;;15.30;4.50;;;;;;;23.22;52.39;101996.05;109962;1251;1002483;-64
2023/10/06 00:32:54;;;;;;;14.20;4.90;;;;;;;23.23;53.08;101995.77;110640;1260;22169;-65
2023/10/06 00:35:30;;;;;;;11.10;3.10;;;;;;;23.24;53.63;101992.70;110423;1266;22891;-67
2023/10/06 00:37:58;;;;;;;6.90;3.30;;;;;;;23.25;54.00;101987.70;110644;1254;22423;-63
2023/10/06 00:40:25;;;;;;;4.50;2.90;;;;;;;23.25;54.30;101989.50;110587;1254;22150;-63
2023/10/06 00:43:00;;;;;;;8.00;3.10;;;;;;;23.25;54.57;101995.16;110670;1254;22274;-67
2023/10/06 00:45:30;;;;;;;8.20;2.70;;;;;;;23.25;54.90;101990.02;110416;1259;23048;-63
2023/10/06 00:47:59;;;;;;;5.70;3.20;;;;;;;23.25;55.16;101989.16;110654;1255;22873;-68
2023/10/06 00:50:32;;;;;;;4.90;2.80;;;;;;;23.24;55.45;101980.15;110464;1256;22406;-60
2023/10/06 00:53:00;;;;;;;5.90;3.00;;;;;;;23.25;55.70;101976.41;110629;1254;23106;-60
2023/10/06 00:55:30;;;;;;;6.10;2.80;;;;;;;23.25;55.89;101979.22;110549;1263;22125;-66
2023/10/06 00:57:57;;;;;;;5.20;2.70;;;;;;;23.25;56.05;101975.47;110609;1256;22273;-65
2023/10/06 01:00:24;;;;;;;5.90;2.90;;;;;;;23.26;56.17;101974.37;110659;1256;22266;-61
2023/10/06 01:02:51;;;;;;;4.40;2.50;;;;;;;23.27;56.25;101970.61;110631;1256;22348;-64
2023/10/06 01:05:22;;;;;;;4.90;2.70;;;;;;;23.28;56.30;101966.81;110577;1253;22331;-68
2023/10/06 01:07:49;;;;;;;8.00;3.00;;;;;;;23.30;56.47;101961.96;110607;1260;22124;-65
2023/10/06 01:10:34;;;;;;;7.20;2.90;;;;;;;23.30;56.48;101965.45;109830;1256;1002500;-65
2023/10/06 01:13:12;;;;;;;5.40;2.60;;;;;;;23.32;56.63;101968.23;110677;1263;22087;-64
2023/10/06 01:15:48;;;;;;;6.20;3.20;;;;;;;23.32;56.60;101965.55;110693;1254;22277;-67
2023/10/06 01:18:40;;;;;;;4.70;2.50;;;;;;;23.33;56.68;101963.91;110395;1267;22682;-61
2023/10/06 01:21:16;;;;;;;7.20;3.30;;;;;;;23.34;56.70;101963.52;110328;1260;23110;-61
2023/10/06 01:23:49;;;;;;;4.60;2.90;;;;;;;23.35;56.68;101960.63;110110;1265;23004;-65
2023/10/06 01:26:15;;;;;;;3.60;2.90;;;;;;;23.36;56.58;101958.79;110119;1262;22263;-62
2023/10/06 01:28:45;;;;;;;5.80;3.60;;;;;;;23.37;56.78;101953.45;110122;1260;22289;-62
2023/10/06 01:31:12;;;;;;;6.60;3.10;;;;;;;23.37;56.90;101941.58;110141;1261;22353;-65
2023/10/06 01:33:39;;;;;;;6.60;2.80;;;;;;;23.37;56.86;101952.91;110149;1259;22142;-62
2023/10/06 01:36:13;;;;;;;5.90;3.10;;;;;;;23.36;56.91;101950.09;110389;1259;22258;-64
2023/10/06 01:38:43;;;;;;;8.00;3.30;;;;;;;23.37;56.91;101946.88;110087;1262;23199;-61
2023/10/06 01:41:10;;;;;;;6.90;3.20;;;;;;;23.37;57.20;101952.19;110296;1267;22162;-61
2023/10/06 01:43:38;;;;;;;5.70;2.80;;;;;;;23.37;57.28;101947.95;110431;1259;22883;-65
2023/10/06 01:46:08;;;;;;;6.40;3.40;;;;;;;23.37;57.30;101950.44;110397;1256;22967;-61
2023/10/06 01:48:36;;;;;;;6.70;4.00;;;;;;;23.36;57.27;101944.83;109933;1271;22215;-70
2023/10/06 01:51:08;;;;;;;5.10;3.30;;;;;;;23.35;57.38;101941.67;110372;1263;22430;-66
2023/10/06 01:53:39;;;;;;;6.60;3.60;;;;;;;23.34;57.23;101944.02;110388;1259;22216;-68
2023/10/06 01:56:07;;;;;;;5.20;3.10;;;;;;;23.34;57.30;101942.11;110546;1266;22180;-63
2023/10/06 01:58:35;;;;;;;4.90;3.80;;;;;;;23.32;57.02;101945.20;110678;1256;23102;-63
2023/10/06 02:01:05;;;;;;;5.00;3.40;;;;;;;23.31;56.80;101943.12;110583;1263;23092;-64
2023/10/06 02:03:38;;;;;;;9.30;3.80;;;;;;;23.30;56.67;101945.84;110588;1257;23099;-62
2023/10/06 02:06:05;;;;;;;5.90;3.60;;;;;;;23.28;56.69;101942.77;110621;1254;22745;-61
2023/10/06 02:08:31;;;;;;;6.70;3.60;;;;;;;23.26;56.47;101940.23;110621;1266;23255;-66
2023/10/06 02:11:01;;;;;;;4.70;3.60;;;;;;;23.24;56.31;101941.91;110428;1259;22754;-71
2023/10/06 02:13:29;;;;;;;4.80;3.50;;;;;;;23.22;56.32;101943.80;110634;1255;22123;-67
2023/10/06 02:15:58;;;;;;;6.90;4.00;;;;;;;23.20;56.27;101945.30;110527;1256;22396;-62
2023/10/06 02:18:37;;;;;;;5.30;3.60;;;;;;;23.18;56.34;101941.17;110590;1263;22332;-63
2023/10/06 02:21:12;;;;;;;6.10;3.90;;;;;;;23.16;56.24;101937.08;110618;1255;22379;-70
2023/10/06 02:23:40;;;;;;;5.70;3.30;;;;;;;23.15;56.05;101936.95;110580;1254;22417;-68
2023/10/06 02:26:08;;;;;;;7.60;4.10;;;;;;;23.11;56.05;101935.17;110632;1269;23149;-69
2023/10/06 02:28:37;;;;;;;8.20;3.80;;;;;;;23.10;56.08;101926.28;110619;1266;22287;-61
2023/10/06 02:31:05;;;;;;;7.00;4.20;;;;;;;23.08;56.15;101920.88;110556;1259;22368;-66
2023/10/06 02:33:45;;;;;;;5.20;4.00;;;;;;;23.07;56.10;101925.02;110596;1263;22134;-64
2023/10/06 02:36:21;;;;;;;8.40;4.70;;;;;;;23.05;56.09;101924.59;110621;1256;22091;-63
2023/10/06 02:38:48;;;;;;;6.80;4.40;;;;;;;23.03;56.12;101920.45;110615;1267;23182;-66
2023/10/06 02:41:26;;;;;;;7.00;4.20;;;;;;;23.01;56.22;101915.61;110678;1254;22384;-64
2023/10/06 02:43:54;;;;;;;4.30;3.50;;;;;;;22.99;56.06;101905.79;110677;1259;22389;-71
2023/10/06 02:46:22;;;;;;;6.20;4.70;;;;;;;22.99;56.08;101905.97;110640;1253;22273;-62
2023/10/06 02:48:50;;;;;;;7.40;4.40;;;;;;;22.98;56.00;101900.91;110629;1263;22413;-64
2023/10/06 02:51:28;;;;;;;7.30;4.40;;;;;;;22.97;56.09;101893.70;110628;1254;22314;-66
2023/10/06 02:54:09;;;;;;;4.90;3.80;;;;;;;22.96;55.98;101894.27;110641;1256;22997;-65
2023/10/06 02:56:38;;;;;;;5.50;4.10;;;;;;;22.96;56.12;101892.71;110619;1256;22290;-65
2023/10/06 02:59:21;;;;;;;6.20;4.20;;;;;;;22.96;55.99;101890.40;110614;1254;22130;-68
2023/10/06 03:01:52;;;;;;;7.80;4.40;;;;;;;22.95;56.01;101889.59;110624;1258;22284;-67
2023/10/06 03:04:21;;;;;;;4.80;4.30;;;;;;;22.94;56.15;101891.05;110600;1263;22149;-64
2023/10/06 03:06:55;;;;;;;5.10;4.40;;;;;;;22.93;56.20;101890.40;110691;1259;23043;-66
2023/10/06 03:09:27;;;;;;;7.40;4.50;;;;;;;22.92;56.19;101887.08;110642;1253;22883;-64
2023/10/06 03:11:59;;;;;;;6.60;4.40;;;;;;;22.90;56.35;101893.73;110599;1266;22360;-70
2023/10/06 03:14:37;;;;;;;6.80;4.70;;;;;;;22.89;56.43;101898.02;110713;1255;22380;-62
2023/10/06 03:17:08;;;;;;;6.00;4.90;;;;;;;22.88;56.40;101906.05;110562;1253;22097;-71
2023/10/06 03:19:40;;;;;;;6.60;4.30;;;;;;;22.88;56.27;101915.29;110625;1256;22129;-62
2023/10/06 03:22:13;;;;;;;7.80;4.30;;;;;;;22.85;56.38;101912.42;110631;1262;22354;-62
2023/10/06 03:24:58;;;;;;;8.10;5.20;;;;;;;22.83;56.44;101907.22;110639;1266;22323;-65
2023/10/06 03:27:26;;;;;;;7.20;5.30;;;;;;;22.82;56.55;101906.02;110644;1250;22323;-68
2023/10/06 03:30:07;;;;;;;6.00;4.00;;;;;;;22.81;56.60;101890.89;110639;1263;22103;-66
2023/10/06 03:32:39;;;;;;;8.00;4.40;;;;;;;22.80;56.60;101895.91;110674;1252;23098;-67
2023/10/06 03:38:07;;;;;;;7.60;4.40;;;;;;;22.77;56.72;101898.52;110635;1263;23190;-63
2023/10/06 03:40:59;;;;;;;8.50;4.80;;;;;;;22.76;56.66;101898.22;110631;1263;22189;-67
2023/10/06 03:43:36;;;;;;;8.50;4.70;;;;;;;22.75;56.70;101898.98;110626;1254;22132;-71
2023/10/06 03:46:03;;;;;;;8.20;4.80;;;;;;;22.74;56.66;101901.71;110641;1254;22418;-61
2023/10/06 03:48:31;;;;;;;7.70;4.10;;;;;;;22.72;56.55;101906.92;110606;1263;22337;-63
2023/10/06 03:50:59;;;;;;;6.80;4.50;;;;;;;22.72;56.50;101915.09;110580;1255;22394;-66
2023/10/06 03:53:29;;;;;;;7.30;4.90;;;;;;;22.71;56.58;101916.17;110640;1254;22911;-65
2023/10/06 03:55:59;;;;;;;9.80;4.80;;;;;;;22.70;56.67;101918.55;110659;1254;22733;-64
2023/10/06 03:58:31;;;;;;;7.20;4.80;;;;;;;22.70;56.55;101913.42;110628;1263;22315;-63
2023/10/06 04:01:07;;;;;;;5.80;4.00;;;;;;;22.69;56.61;101913.48;110632;1262;22378;-62
2023/10/06 04:03:33;;;;;;;7.60;4.80;;;;;;;22.68;56.58;101917.27;110640;1263;23087;-62
2023/10/06 04:06:04;;;;;;;4.70;4.20;;;;;;;22.67;56.54;101918.35;110505;1258;22810;-62
2023/10/06 04:08:31;;;;;;;7.00;4.20;;;;;;;22.67;56.54;101921.36;110319;1259;23026;-62
2023/10/06 04:10:58;;;;;;;8.20;4.20;;;;;;;22.67;56.29;101924.71;110611;1256;22570;-66
2023/10/06 04:13:25;;;;;;;8.10;4.30;;;;;;;22.67;56.30;101926.30;110660;1254;22927;-62
2023/10/06 04:15:52;;;;;;;6.80;4.90;;;;;;;22.66;56.20;101924.05;110526;1267;22950;-66
2023/10/06 04:18:23;;;;;;;4.70;4.10;;;;;;;22.64;56.12;101930.70;110579;1263;22353;-62
2023/10/06 04:20:51;;;;;;;5.20;4.10;;;;;;;22.63;55.96;101931.79;110611;1251;22581;-62
2023/10/06 04:23:18;;;;;;;6.00;4.50;;;;;;;22.61;56.00;101936.52;110587;1256;22126;-61
2023/10/06 04:25:45;;;;;;;13.20;4.90;;;;;;;22.59;55.95;101938.55;110669;1254;22714;-67
2023/10/06 04:28:16;;;;;;;7.50;4.60;;;;;;;22.58;55.86;101941.10;110653;1263;22324;-66
2023/10/06 04:30:44;;;;;;;9.60;4.00;;;;;;;22.56;55.82;101946.30;110649;1263;22285;-68
2023/10/06 04:33:13;;;;;;;8.20;3.70;;;;;;;22.55;55.74;101950.08;110675;1260;22131;-64
2023/10/06 04:35:42;;;;;;;7.20;4.60;;;;;;;22.53;55.79;101945.74;110432;1263;22386;-64
2023/10/06 04:38:12;;;;;;;4.80;3.50;;;;;;;22.52;55.85;101942.99;110581;1266;22261;-71
2023/10/06 04:40:41;;;;;;;6.10;4.20;;;;;;;22.50;55.56;101948.23;110662;1251;22255;-62
2023/10/06 04:43:07;;;;;;;7.80;4.20;;;;;;;22.49;55.64;101952.17;110612;1263;22297;-67
2023/10/06 04:45:38;;;;;;;6.30;4.10;;;;;;;22.47;55.50;101957.39;110639;1254;22865;-62
2023/10/06 04:48:07;;;;;;;6.70;4.00;;;;;;;22.45;55.24;101955.88;110681;1257;22346;-64
2023/10/06 04:50:34;;;;;;;5.90;4.20;;;;;;;22.45;55.19;101959.47;110652;1254;22204;-62
2023/10/06 04:53:05;;;;;;;6.10;4.20;;;;;;;22.43;55.13;101964.14;110643;1254;22109;-66
2023/10/06 04:55:38;;;;;;;6.30;3.90;;;;;;;22.42;55.20;101963.50;110482;1266;23126;-67
2023/10/06 04:58:07;;;;;;;11.10;4.30;;;;;;;22.42;55.04;101966.48;110620;1257;22251;-64
2023/10/06 05:00:34;;;;;;;7.20;4.00;;;;;;;22.41;55.03;101967.27;110227;1262;22893;-64
2023/10/06 05:03:04;;;;;;;12.60;4.40;;;;;;;22.40;55.09;101968.36;110691;1263;22371;-63
2023/10/06 05:05:35;;;;;;;5.40;4.10;;;;;;;22.39;55.00;101966.63;110641;1254;23076;-65
2023/10/06 05:08:03;;;;;;;7.50;4.30;;;;;;;22.39;55.04;101970.39;110693;1260;22197;-68
2023/10/06 05:10:31;;;;;;;5.30;4.40;;;;;;;22.40;55.03;101979.17;110604;1266;22317;-71
2023/10/06 05:13:06;;;;;;;7.80;4.50;;;;;;;22.41;54.76;101980.31;110649;1263;22294;-64
2023/10/06 05:15:34;;;;;;;7.80;4.00;;;;;;;22.41;54.38;101987.05;110653;1256;22125;-61
2023/10/06 05:18:03;;;;;;;5.70;4.20;;;;;;;22.39;53.97;101989.29;110654;1254;22275;-69
2023/10/06 05:20:31;;;;;;;6.00;4.60;;;;;;;22.37;53.81;101991.49;110650;1257;23021;-65
2023/10/06 05:22:58;;;;;;;6.50;4.20;;;;;;;22.38;53.38;101987.25;110665;1254;22125;-64
2023/10/06 05:25:26;;;;;;;7.50;4.00;;;;;;;22.37;52.70;101987.80;110645;1256;22927;-68
2023/10/06 05:27:53;;;;;;;6.10;4.20;;;;;;;22.34;52.08;101986.20;110654;1254;22608;-63
2023/10/06 05:30:21;;;;;;;4.80;3.60;;;;;;;22.29;51.64;101993.16;110654;1254;22428;-62
2023/10/06 05:32:48;;;;;;;6.20;4.00;;;;;;;22.22;51.42;102003.25;110654;1254;22999;-64
2023/10/06 05:35:15;;;;;;;9.10;4.30;;;;;;;22.13;50.79;102008.34;110650;1263;22371;-62
2023/10/06 05:37:46;;;;;;;7.40;4.20;;;;;;;22.01;50.41;102013.32;110650;1264;22334;-66
2023/10/06 05:40:16;;;;;;;6.90;4.40;;;;;;;21.88;50.24;102016.42;110631;1263;22527;-62
2023/10/06 05:42:43;;;;;;;9.20;4.40;;;;;;;21.77;50.02;102010.25;110617;1273;22802;-67
2023/10/06 05:45:15;;;;;;;10.50;4.50;;;;;;;21.66;50.01;102012.55;110599;1254;22281;-67
2023/10/06 05:47:46;;;;;;;6.90;4.30;;;;;;;21.55;50.01;102013.09;110583;1266;22140;-65
2023/10/06 05:50:29;;;;;;;6.40;4.10;;;;;;;21.46;50.12;102011.55;110198;1262;23137;-65
2023/10/06 05:53:01;;;;;;;7.30;4.00;;;;;;;21.40;49.97;102012.77;110621;1256;22108;-66
2023/10/06 05:55:29;;;;;;;8.50;4.60;;;;;;;21.34;49.97;102011.42;110588;1263;22312;-61
2023/10/06 05:57:58;;;;;;;5.70;4.30;;;;;;;21.30;49.79;102013.41;110629;1263;22274;-68
2023/10/06 06:00:30;;;;;;;7.30;4.50;;;;;;;21.26;49.73;102011.11;110421;1259;22791;-61
2023/10/06 06:02:58;;;;;;;9.60;5.00;;;;;;;21.22;49.81;102012.55;110579;1267;22265;-67
2023/10/06 06:05:29;;;;;;;5.30;4.80;;;;;;;21.20;49.92;102015.10;110574;1257;22402;-62
2023/10/06 06:07:59;;;;;;;;;;;;;;;21.19;49.64;102016.23;109916;1263;1002375;-63
2023/10/06 06:10:29;;;;;;;9.40;5.10;;;;;;;21.15;49.48;102022.73;110705;1254;22325;-65
2023/10/06 06:12:56;;;;;;;6.50;4.30;;;;;;;21.11;49.23;102025.25;110658;1263;22180;-62
2023/10/06 06:15:23;;;;;;;14.30;5.00;;;;;;;21.06;49.68;102029.83;110650;1257;22876;-67
2023/10/06 06:17:50;;;;;;;7.50;4.80;;;;;;;21.04;49.57;102031.51;110199;1262;22332;-60
2023/10/06 06:20:21;;;;;;;7.90;4.60;;;;;;;21.03;49.19;102031.92;110697;1256;22274;-65
2023/10/06 06:23:04;;;;;;;10.70;4.50;;;;;;;21.03;49.32;102033.17;110707;1254;22418;-62
2023/10/06 06:25:30;;;;;;;9.40;4.30;;;;;;;21.04;49.03;102037.70;110637;1256;23195;-61
2023/10/06 06:27:59;;;;;;;10.50;5.30;;;;;;;21.04;48.84;102039.29;110464;1260;22597;-67
2023/10/06 06:30:26;;;;;;;5.60;4.30;;;;;;;21.04;49.02;102049.19;110642;1263;22570;-70
2023/10/06 06:32:53;;;;;;;8.40;4.60;;;;;;;21.03;48.88;102040.03;110614;1257;22463;-65
2023/10/06 06:35:21;;;;;;;7.40;4.60;;;;;;;21.03;48.60;102046.39;110621;1256;22459;-65
2023/10/06 06:37:51;;;;;;;11.90;4.70;;;;;;;21.03;48.68;102050.10;110534;1274;22180;-62
2023/10/06 06:40:19;;;;;;;7.90;5.30;;;;;;;21.04;48.87;102050.03;110643;1266;22115;-65
2023/10/06 06:42:51;;;;;;;7.60;4.40;;;;;;;21.08;48.93;102049.86;110676;1256;22118;-63
2023/10/06 06:45:19;;;;;;;18.00;5.20;;;;;;;21.13;48.49;102053.74;110629;1257;22968;-61
2023/10/06 06:47:45;;;;;;;10.20;4.80;;;;;;;21.13;48.36;102054.60;110182;1262;22961;-63
2023/10/06 06:50:17;;;;;;;10.10;4.30;;;;;;;21.14;48.35;102056.85;110674;1263;22355;-62
2023/10/06 06:52:44;;;;;;;11.20;4.40;;;;;;;21.15;48.40;102056.97;110627;1257;22483;-66
2023/10/06 06:55:14;;;;;;;7.80;4.70;;;;;;;21.17;48.39;102056.34;110583;1258;22222;-69
2023/10/06 06:57:45;;;;;;;6.60;4.80;;;;;;;21.19;48.54;102057.71;110446;1260;22491;-62
2023/10/06 07:00:21;;;;;;;7.20;4.30;;;;;;;21.19;48.45;102055.72;110704;1257;22373;-64
2023/10/06 07:02:52;;;;;;;7.10;4.80;;;;;;;21.19;48.50;102050.98;110612;1257;23122;-62
2023/10/06 07:05:20;;;;;;;7.60;4.60;;;;;;;21.19;48.61;102045.17;110671;1256;22961;-63
2023/10/06 07:07:50;;;;;;;7.60;4.90;;;;;;;21.20;48.55;102046.70;110606;1255;22206;-65
2023/10/06 07:10:22;;;;;;;10.10;5.00;;;;;;;21.20;48.40;102042.61;110637;1263;22850;-65
2023/10/06 07:12:50;;;;;;;7.10;4.80;;;;;;;21.20;48.60;102044.41;110445;1267;22409;-62
2023/10/06 07:15:20;;;;;;;7.30;4.70;;;;;;;21.23;48.96;102041.59;110442;1260;22280;-63
2023/10/06 07:17:49;;;;;;;10.20;4.70;;;;;;;21.27;48.77;102045.33;110628;1261;22384;-65
2023/10/06 07:20:19;;;;;;;8.00;5.20;;;;;;;21.31;48.37;102048.50;110664;1263;23464;-62
2023/10/06 07:22:46;;;;;;;9.50;5.20;;;;;;;21.34;48.40;102048.35;110694;1263;22319;-63
2023/10/06 07:25:15;;;;;;;9.00;5.40;;;;;;;21.38;47.98;102045.14;110276;1260;23151;-65
2023/10/06 07:27:44;;;;;;;10.50;5.00;;;;;;;21.42;47.69;102048.68;110652;1257;22097;-66
2023/10/06 07:30:14;;;;;;;7.60;4.90;;;;;;;21.46;47.39;102053.24;110630;1260;22481;-64
2023/10/06 07:32:44;;;;;;;11.90;5.70;;;;;;;21.50;47.18;102056.95;110398;1267;22320;-69
2023/10/06 07:35:12;;;;;;;13.70;5.10;;;;;;;21.53;47.29;102063.16;110631;1256;22137;-65
2023/10/06 07:37:42;;;;;;;9.60;5.00;;;;;;;21.59;47.36;102064.48;110678;1255;22334;-71
2023/10/06 07:40:14;;;;;;;9.50;4.70;;;;;;;21.61;46.89;102059.95;110685;1257;23053;-68
2023/10/06 07:42:41;;;;;;;;;;;;;;;21.64;46.88;102062.79;110678;1263;23262;-70
2023/10/06 07:45:09;;;;;;;8.10;5.30;;;;;;;21.70;46.91;102062.31;110636;1261;22377;-61
2023/10/06 07:47:39;;;;;;;7.30;4.80;;;;;;;21.76;46.48;102060.81;110420;1260;22173;-63
2023/10/06 07:50:07;;;;;;;8.90;5.00;;;;;;;21.80;46.20;102062.73;110647;1268;22129;-64
2023/10/06 07:52:35;;;;;;;6.90;5.10;;;;;;;21.84;46.28;102068.27;110170;1274;22466;-64
2023/10/06 07:55:09;;;;;;;10.80;5.70;;;;;;;21.87;46.35;102071.09;110461;1270;22302;-66
2023/10/06 07:57:41;;;;;;;9.30;5.60;;;;;;;21.90;45.64;102070.96;110715;1260;22274;-71
2023/10/06 08:00:30;;;;;;;9.90;5.50;;;;;;;21.93;45.72;102072.05;110357;1258;22451;-64
2023/10/06 08:02:59;;;;;;;8.10;4.90;;;;;;;21.96;45.59;102073.46;109652;1275;1002142;-65
2023/10/06 08:05:26;;;;;;;9.40;6.10;;;;;;;21.99;45.20;102076.33;110592;1254;22329;-63
2023/10/06 08:08:00;;;;;;;8.00;5.70;;;;;;;22.02;44.92;102081.65;110523;1254;22276;-65
2023/10/06 08:10:29;;;;;;;9.10;5.60;;;;;;;22.05;44.40;102086.63;110426;1259;22278;-67
2023/10/06 08:13:00;;;;;;;9.30;5.40;;;;;;;22.09;44.44;102082.73;110673;1261;22442;-65
2023/10/06 08:15:27;;;;;;;14.50;5.60;;;;;;;22.14;44.46;102082.13;110651;1264;22321;-67
2023/10/06 08:17:55;;;;;;;11.70;5.80;;;;;;;22.18;44.28;102083.01;110605;1254;23137;-66
2023/10/06 08:20:24;;;;;;;12.20;5.20;;;;;;;22.22;44.18;102086.13;110662;1266;22970;-63
2023/10/06 08:22:52;;;;;;;10.10;5.60;;;;;;;22.27;44.18;102083.23;110585;1265;23119;-63
2023/10/06 08:25:19;;;;;;;8.70;5.20;;;;;;;22.32;44.14;102082.64;110623;1256;22358;-63
2023/10/06 08:27:47;;;;;;;8.20;5.30;;;;;;;22.37;43.81;102085.90;110572;1256;23159;-64
2023/10/06 08:30:18;;;;;;;9.70;5.60;;;;;;;22.43;43.40;102090.06;110635;1257;23147;-71
2023/10/06 08:32:46;;;;;;;11.10;5.00;;;;;;;22.49;43.11;102097.38;110700;1251;22381;-63
2023/10/06 08:35:13;;;;;;;8.90;5.30;;;;;;;22.54;43.00;102103.29;110597;1263;22484;-61
2023/10/06 08:37:44;;;;;;;10.40;5.10;;;;;;;22.58;42.84;102101.00;110631;1267;22188;-68
2023/10/06 08:40:16;;;;;;;12.60;5.60;;;;;;;22.61;42.59;102099.23;110673;1263;22414;-67
2023/10/06 08:42:45;;;;;;;9.30;5.70;;;;;;;22.65;42.78;102103.62;110616;1264;22122;-63
2023/10/06 08:45:24;;;;;;;10.60;5.40;;;;;;;22.68;42.80;102105.45;110668;1267;22380;-65
2023/10/06 08:48:01;;;;;;;8.50;5.20;;;;;;;22.70;43.14;102105.37;110589;1267;22362;-63
2023/10/06 08:50:32;;;;;;;9.60;4.90;;;;;;;22.75;43.15;102104.93;110674;1264;22098;-63
2023/10/06 08:53:01;;;;;;;10.30;5.80;;;;;;;22.80;43.09;102100.08;110509;1266;23166;-61
2023/10/06 08:55:28;;;;;;;10.60;4.50;;;;;;;22.84;43.18;102103.20;110674;1257;22340;-65
2023/10/06 08:57:55;;;;;;;9.50;5.40;;;;;;;22.90;43.45;102108.36;110423;1258;23070;-70
2023/10/06 09:00:23;;;;;;;7.80;5.00;;;;;;;22.96;43.57;102108.94;110427;1275;22796;-66
2023/10/06 09:02:54;;;;;;;8.60;5.20;;;;;;;23.03;43.18;102113.52;110691;1263;22927;-62
2023/10/06 09:05:21;;;;;;;6.20;5.10;;;;;;;23.10;42.81;102114.73;110607;1274;22107;-63
2023/10/06 09:07:59;;;;;;;11.20;4.80;;;;;;;23.17;43.18;102114.38;110542;1274;22382;-62
2023/10/06 09:10:32;;;;;;;9.30;4.80;;;;;;;23.24;42.78;102113.31;110586;1251;22925;-62
2023/10/06 09:13:05;;;;;;;7.10;4.30;;;;;;;23.28;42.25;102115.18;110595;1261;22392;-62
2023/10/06 09:15:35;;;;;;;8.80;5.10;;;;;;;23.34;41.35;102114.39;110594;1273;22936;-62
2023/10/06 09:18:29;;;;;;;7.50;4.10;;;;;;;23.38;41.28;102111.88;110378;1254;335630;-62
2023/10/06 09:21:26;;;;;;;7.70;4.30;;;;;;;23.43;40.40;102110.88;109940;1266;22221;-70
2023/10/06 09:24:00;;;;;;;7.80;4.70;;;;;;;23.50;39.84;102112.45;109644;1283;23131;-60
2023/10/06 09:26:29;;;;;;;8.90;5.00;;;;;;;23.54;39.42;102122.14;109675;1273;22352;-65
2023/10/06 09:28:59;;;;;;;7.80;4.60;;;;;;;23.59;39.02;102117.98;109624;1281;22293;-67
2023/10/06 09:31:44;;;;;;;6.40;4.50;;;;;;;23.63;38.89;102118.45;109660;1268;23112;-62
2023/10/06 09:34:11;;;;;;;7.00;4.40;;;;;;;23.68;39.00;102114.44;109654;1276;22895;-62
2023/10/06 09:36:42;;;;;;;6.40;3.70;;;;;;;23.72;38.62;102117.76;109700;1267;23033;-63
2023/10/06 09:39:17;;;;;;;7.10;4.20;;;;;;;23.77;38.51;102116.63;109650;1276;22807;-65
2023/10/06 09:41:44;;;;;;;8.70;4.70;;;;;;;23.81;38.18;102111.23;109669;1283;22982;-65
2023/10/06 09:44:11;;;;;;;8.10;4.30;;;;;;;23.85;37.94;102115.46;109573;1283;23005;-62
2023/10/06 09:46:41;;;;;;;6.70;4.60;;;;;;;23.89;38.20;102109.73;109558;1273;22975;-66
2023/10/06 09:49:09;;;;;;;8.90;4.40;;;;;;;23.93;37.74;102111.29;109678;1267;22180;-68
2023/10/06 09:51:36;;;;;;;7.40;4.40;;;;;;;23.97;37.59;102111.02;109508;1279;22964;-63
2023/10/06 09:54:09;;;;;;;5.90;4.20;;;;;;;24.02;37.87;102110.42;109679;1270;23025;-62
2023/10/06 09:56:42;;;;;;;9.60;4.60;;;;;;;24.06;37.33;102108.24;109644;1269;22172;-61
2023/10/06 09:59:12;;;;;;;10.20;4.20;;;;;;;24.11;37.37;102104.45;109980;1269;23068;-62
2023/10/06 10:01:42;;;;;;;8.90;4.60;;;;;;;24.15;37.28;102101.19;110515;1261;23082;-65
2023/10/06 10:04:12;;;;;;;7.30;4.50;;;;;;;24.20;37.33;102102.47;110605;1274;22382;-61
2023/10/06 10:06:45;;;;;;;7.90;4.70;;;;;;;24.26;37.77;102097.73;110374;1266;22215;-62
2023/10/06 10:09:16;;;;;;;8.30;4.70;;;;;;;24.29;37.56;102097.22;110557;1257;22285;-67
2023/10/06 10:12:23;;;;;;;8.20;4.80;;;;;;;24.33;37.12;102098.05;110299;1257;22171;-63
2023/10/06 10:14:53;;;;;;;7.30;4.30;;;;;;;24.37;37.05;102093.41;110572;1254;22792;-62
2023/10/06 10:17:30;;;;;;;8.00;4.90;;;;;;;24.38;37.07;102095.08;110124;1279;22185;-71
2023/10/06 10:19:58;;;;;;;6.00;4.30;;;;;;;24.41;37.26;102091.74;110018;1279;22236;-67
2023/10/06 10:22:27;;;;;;;9.10;4.90;;;;;;;24.44;36.80;102091.20;110041;1273;22247;-65
2023/10/06 10:24:54;;;;;;;9.30;4.30;;;;;;;24.45;36.52;102088.61;110102;1267;22217;-69
2023/10/06 10:27:23;;;;;;;6.10;4.00;;;;;;;24.47;36.69;102086.77;110204;1257;22392;-62
2023/10/06 10:29:51;;;;;;;6.50;3.60;;;;;;;24.47;36.24;102087.08;110129;1270;22153;-62
2023/10/06 10:32:24;;;;;;;11.60;3.90;;;;;;;24.49;35.83;102083.06;110148;1257;22245;-64
2023/10/06 10:35:14;;;;;;;5.60;3.60;;;;;;;24.53;35.91;102078.73;110029;1279;23079;-63
2023/10/06 10:37:55;;;;;;;6.10;3.90;;;;;;;24.57;35.22;102074.76;110291;1263;23347;-66
2023/10/06 10:40:23;;;;;;;5.70;3.80;;;;;;;24.60;35.04;102072.49;110381;1260;22326;-66
2023/10/06 10:42:55;;;;;;;5.70;3.90;;;;;;;24.60;34.95;102072.10;110363;1259;22517;-61
2023/10/06 10:45:35;;;;;;;5.90;4.20;;;;;;;24.60;34.56;102070.54;110355;1257;22332;-66
2023/10/06 10:48:14;;;;;;;6.40;3.90;;;;;;;24.60;34.25;102070.70;110474;1262;22199;-65
2023/10/06 10:51:03;;;;;;;6.10;3.90;;;;;;;24.63;34.55;102068.59;110699;1254;22123;-64
2023/10/06 10:53:43;;;;;;;6.40;3.90;;;;;;;24.64;33.75;102068.84;110675;1256;22245;-63
2023/10/06 10:56:13;;;;;;;7.90;4.10;;;;;;;24.66;33.25;102070.48;110577;1261;22132;-66
2023/10/06 10:58:49;;;;;;;7.00;3.80;;;;;;;24.69;33.55;102069.83;110596;1266;22149;-63
2023/10/06 11:01:38;;;;;;;10.80;3.90;;;;;;;24.69;33.33;102072.63;110638;1254;22300;-63
2023/10/06 11:04:18;;;;;;;6.80;3.50;;;;;;;24.71;33.60;102073.75;110606;1274;23033;-64
2023/10/06 11:06:48;;;;;;;6.80;4.20;;;;;;;24.73;33.24;102069.05;110625;1266;22397;-63
2023/10/06 11:09:40;;;;;;;8.30;3.50;;;;;;;24.73;33.11;102069.91;110644;1254;22308;-61
2023/10/06 11:12:16;;;;;;;9.50;4.10;;;;;;;24.74;33.49;102076.96;110652;1260;22340;-66
2023/10/06 11:15:02;;;;;;;6.10;3.90;;;;;;;24.77;33.58;102077.50;110651;1253;22863;-69
2023/10/06 11:17:29;;;;;;;12.60;4.70;;;;;;;24.79;32.87;102075.78;110618;1263;22748;-62
2023/10/06 11:20:01;;;;;;;5.10;3.50;;;;;;;24.81;33.12;102074.45;110616;1250;22410;-62
2023/10/06 11:22:33;;;;;;;7.40;4.40;;;;;;;24.82;33.00;102077.37;110622;1266;23275;-66
2023/10/06 11:25:03;;;;;;;6.40;4.20;;;;;;;24.82;33.09;102077.39;110625;1259;23091;-65
2023/10/06 11:27:30;;;;;;;5.90;3.60;;;;;;;24.82;33.51;102075.23;110472;1263;22439;-65
2023/10/06 11:29:57;;;;;;;6.60;3.70;;;;;;;24.83;33.77;102076.94;110678;1261;22367;-67
2023/10/06 11:32:24;;;;;;;9.10;3.80;;;;;;;24.85;33.55;102075.96;110658;1250;22151;-64
2023/10/06 11:34:51;;;;;;;5.70;3.50;;;;;;;24.85;33.08;102073.83;110638;1254;22360;-64
2023/10/06 11:37:22;;;;;;;5.70;3.60;;;;;;;24.86;32.93;102073.77;110688;1263;22236;-65
2023/10/06 11:39:57;;;;;;;5.70;3.90;;;;;;;24.87;32.84;102073.38;110673;1254;22424;-68